Linda Reed — WDE8222 — position and weather

sailwx.info

Track history (hours):
 
Tides and Currents Weather Stations Pressure Air Temp Water Temp Dewpoint Dewpoint Depression Visibility Wind Speed Wind Dir Waves Ship Positions

Linda Reed

Owner: Crounse Corporation, Maysville, KY. More information available from US FCC via Universal Licensing System and Coast Guard Vessel Documentation Center.

Last reported at 2015-Jul-26 10:07 UTC. Time now 2015-Aug-05 04:19 UTC.
Position N 38°41' W 083°04'.
Warning: this ship's position is 9 days out of date.

Length 45 m.

Type: Tow > 200 m length. MMSI: 367402990.

Date/timePositionNaut miles runAvg speedWind from/ knotsBaromVisibWave heightAir tempDewpointWater temp
2015-Jul-26 10:07N 38°41' W 083°04'8 3.1
2015-Jul-26 07:28N 38°37' W 083°13'6 2.5
2015-Jul-26 05:12N 38°38' W 083°20'8 3.8
2015-Jul-26 03:12N 38°41' W 083°29'21 2.9
2015-Jul-25 20:08N 38°46' W 083°55'6 3.8
2015-Jul-25 18:33N 38°46' W 084°02'4 4.0
2015-Jul-25 17:32N 38°47' W 084°08'3 2.5
2015-Jul-25 16:30N 38°48' W 084°11'4 3.1
2015-Jul-25 15:21N 38°50' W 084°14'3 3.6
2015-Jul-25 14:33N 38°53' W 084°14'3 3.4
2015-Jul-25 13:33N 38°56' W 084°16'3 3.5
2015-Jul-25 12:33N 38°59' W 084°18'3 3.3
2015-Jul-25 11:32N 39°02' W 084°21'3 3.3
2015-Jul-25 10:32N 39°03' W 084°25'0 0.3
2015-Jul-25 09:33N 39°03' W 084°24'4 3.8
2015-Jul-25 08:33N 39°02' W 084°20'6 6.0
2015-Jul-25 07:33N 38°56' W 084°16'4 4.0
2015-Jul-25 06:33N 38°53' W 084°14'0 0.2
2015-Jul-25 05:33N 38°53' W 084°14'3 2.6
2015-Jul-25 04:33N 38°50' W 084°14'4 3.8
2015-Jul-25 03:33N 38°48' W 084°10'1 0.9
2015-Jul-25 02:27N 38°48' W 084°09'0 0.0
2015-Jul-25 01:32N 38°48' W 084°09'31 2.6
2015-Jul-24 13:33N 38°42' W 083°30'3 3.4
2015-Jul-24 12:32N 38°40' W 083°26'5 4.9
2015-Jul-24 11:31N 38°39' W 083°20'  
2015-Jul-16 13:33N 38°24' W 082°33'0 0.2
2015-Jul-16 12:30N 38°24' W 082°33'0 0.4
2015-Jul-16 11:31N 38°24' W 082°33'  
Track history (hours):
 
Tides and Currents Weather Stations Pressure Air Temp Water Temp Dewpoint Dewpoint Depression Visibility Wind Speed Wind Dir Waves Ship Positions

Linda Reed

Owner: Crounse Corporation, Maysville, KY. More information available from US FCC via Universal Licensing System and Coast Guard Vessel Documentation Center.

Last reported at 2015-Jul-26 10:07 UTC. Time now 2015-Aug-05 04:19 UTC.
Position N 38°41' W 083°04'.
Warning: this ship's position is 9 days out of date.

Length 45 m.

Type: Tow > 200 m length. MMSI: 367402990.

Date/timePositionNaut miles runAvg speedWind from/ knotsBaromVisibWave heightAir tempDewpointWater temp
2015-Jul-26 10:07N 38°41' W 083°04'8 3.1
2015-Jul-26 07:28N 38°37' W 083°13'6 2.5
2015-Jul-26 05:12N 38°38' W 083°20'8 3.8
2015-Jul-26 03:12N 38°41' W 083°29'21 2.9
2015-Jul-25 20:08N 38°46' W 083°55'6 3.8
2015-Jul-25 18:33N 38°46' W 084°02'4 4.0
2015-Jul-25 17:32N 38°47' W 084°08'3 2.5
2015-Jul-25 16:30N 38°48' W 084°11'4 3.1
2015-Jul-25 15:21N 38°50' W 084°14'3 3.6
2015-Jul-25 14:33N 38°53' W 084°14'3 3.4
2015-Jul-25 13:33N 38°56' W 084°16'3 3.5
2015-Jul-25 12:33N 38°59' W 084°18'3 3.3
2015-Jul-25 11:32N 39°02' W 084°21'3 3.3
2015-Jul-25 10:32N 39°03' W 084°25'0 0.3
2015-Jul-25 09:33N 39°03' W 084°24'4 3.8
2015-Jul-25 08:33N 39°02' W 084°20'6 6.0
2015-Jul-25 07:33N 38°56' W 084°16'4 4.0
2015-Jul-25 06:33N 38°53' W 084°14'0 0.2
2015-Jul-25 05:33N 38°53' W 084°14'3 2.6
2015-Jul-25 04:33N 38°50' W 084°14'4 3.8
2015-Jul-25 03:33N 38°48' W 084°10'1 0.9
2015-Jul-25 02:27N 38°48' W 084°09'0 0.0
2015-Jul-25 01:32N 38°48' W 084°09'31 2.6
2015-Jul-24 13:33N 38°42' W 083°30'3 3.4
2015-Jul-24 12:32N 38°40' W 083°26'5 4.9
2015-Jul-24 11:31N 38°39' W 083°20'  
2015-Jul-16 13:33N 38°24' W 082°33'0 0.2
2015-Jul-16 12:30N 38°24' W 082°33'0 0.4
2015-Jul-16 11:31N 38°24' W 082°33'  

Dump ship's entire track history